Time;durP1;ratioP1;P1;durP2;ratioP2;P2;SDS_P1;SDS_P2;PMS_P1;PMS_P2;Temp;Humidity;BMP_temperature;BMP_pressure;BME280_temperature;BME280_humidity;BME280_pressure;Samples;Min_cycle;Max_cycle;Signal;HPM_P1;HPM_P2
2021/11/26 00:00:26;;;;;;;10.13;3.47;;;;;;;9.80;57.84;100218.59;4859396;29;20033;-92
2021/11/26 00:02:51;;;;;;;8.20;3.05;;;;;;;9.78;58.46;100210.00;4859165;29;20085;-93
2021/11/26 00:05:17;;;;;;;12.27;3.00;;;;;;;9.79;58.09;100211.66;4858980;29;20041;-93
2021/11/26 00:07:43;;;;;;;9.18;3.17;;;;;;;9.69;59.08;100194.88;4858954;29;20088;-92
2021/11/26 00:10:09;;;;;;;11.82;2.78;;;;;;;9.23;60.49;100188.28;4860720;29;20045;-92
2021/11/26 00:12:34;;;;;;;7.38;2.40;;;;;;;9.67;59.48;100181.03;4858724;29;20033;-92
2021/11/26 00:17:25;;;;;;;5.10;2.33;;;;;;;10.00;58.74;100180.50;4859124;29;20085;-92
2021/11/26 00:19:50;;;;;;;11.55;2.65;;;;;;;9.98;59.02;100163.19;4859224;29;20409;-92
2021/11/26 00:22:16;;;;;;;10.68;2.22;;;;;;;10.12;59.01;100149.97;4858818;29;20033;-92
2021/11/26 00:24:42;;;;;;;11.10;2.38;;;;;;;10.25;58.16;100150.78;4859454;29;20032;-93
2021/11/26 00:27:08;;;;;;;7.45;2.38;;;;;;;10.23;58.10;100144.81;4857245;29;20029;-92
2021/11/26 00:29:34;;;;;;;6.30;2.28;;;;;;;10.02;58.89;100138.44;4857719;29;20033;-93
2021/11/26 00:31:59;;;;;;;9.57;2.95;;;;;;;10.04;59.03;100136.53;4857677;29;20548;-93
2021/11/26 00:34:25;;;;;;;9.68;2.88;;;;;;;10.16;58.75;100135.66;4857426;29;20097;-93
2021/11/26 00:36:50;;;;;;;9.07;3.28;;;;;;;10.01;58.81;100137.59;4857570;29;20384;-92
2021/11/26 00:39:16;;;;;;;12.05;2.60;;;;;;;10.08;58.86;100132.75;4857744;29;20636;-92
2021/11/26 00:41:41;;;;;;;11.77;2.88;;;;;;;10.03;59.14;100113.88;4857407;29;20030;-93
2021/11/26 00:44:07;;;;;;;7.90;2.88;;;;;;;10.13;59.08;100105.25;4858063;29;20104;-93
2021/11/26 00:46:32;;;;;;;11.18;2.80;;;;;;;10.04;58.96;100102.44;4859065;29;20425;-93
2021/11/26 00:48:59;;;;;;;9.98;2.50;;;;;;;10.12;58.85;100089.63;4859635;29;20081;-93
2021/11/26 00:51:25;;;;;;;9.07;2.45;;;;;;;10.19;59.07;100090.88;4861776;29;20125;-93
2021/11/26 00:53:50;;;;;;;12.98;2.55;;;;;;;10.19;58.95;100077.75;4861849;29;20120;-93
2021/11/26 00:56:16;;;;;;;11.55;2.72;;;;;;;10.32;58.78;100078.56;4863078;29;20059;-93
2021/11/26 00:58:41;;;;;;;12.82;2.42;;;;;;;10.43;58.20;100083.03;4862892;29;20037;-92
2021/11/26 01:01:06;;;;;;;12.15;2.50;;;;;;;10.32;58.35;100067.22;4862277;29;20086;-93
2021/11/26 01:03:32;;;;;;;14.55;2.63;;;;;;;10.34;58.37;100040.88;4862645;29;20036;-93
2021/11/26 01:05:57;;;;;;;9.88;2.25;;;;;;;10.30;58.62;100042.88;4862894;29;20460;-93
2021/11/26 01:08:23;;;;;;;9.60;3.53;;;;;;;10.26;58.46;100034.34;4876960;29;20056;-93
2021/11/26 01:10:50;;;;;;;10.55;2.33;;;;;;;10.28;58.34;100029.84;4862470;29;20085;-93
2021/11/26 01:13:17;;;;;;;6.03;1.75;;;;;;;10.29;58.62;100031.53;4862504;29;20104;-92
2021/11/26 01:15:43;;;;;;;9.82;2.15;;;;;;;10.27;58.68;100028.19;4862679;29;20448;-94
2021/11/26 01:18:10;;;;;;;12.63;2.45;;;;;;;10.38;58.59;100013.47;4862670;29;20076;-93
2021/11/26 01:20:36;;;;;;;8.02;1.90;;;;;;;10.46;58.28;100005.84;4862793;29;20400;-93
2021/11/26 01:23:03;;;;;;;9.60;1.58;;;;;;;10.52;58.10;100005.41;4862792;29;20034;-92
2021/11/26 01:25:29;;;;;;;7.95;2.10;;;;;;;10.19;58.37;99993.78;4862462;29;20033;-93
2021/11/26 01:27:55;;;;;;;12.55;2.35;;;;;;;10.47;57.41;99992.63;4862220;29;20117;-93
2021/11/26 01:30:26;;;;;;;11.10;2.22;;;;;;;10.35;58.14;99995.31;4862618;29;20113;-93
2021/11/26 01:32:56;;;;;;;11.25;2.40;;;;;;;10.54;57.57;99987.75;4862820;29;20041;-94
2021/11/26 01:35:22;;;;;;;6.88;2.38;;;;;;;10.62;57.18;99980.13;4862570;29;20065;-93
2021/11/26 01:37:48;;;;;;;9.07;2.22;;;;;;;10.71;57.27;99983.88;4862347;29;20056;-92
2021/11/26 01:40:15;;;;;;;7.13;2.75;;;;;;;10.74;57.26;99959.16;4862414;29;20101;-93
2021/11/26 01:42:41;;;;;;;6.95;1.92;;;;;;;10.64;57.20;99967.75;4862010;29;20184;-93
2021/11/26 01:45:07;;;;;;;10.95;3.40;;;;;;;10.49;58.11;99958.41;4862503;29;20499;-93
2021/11/26 01:47:33;;;;;;;14.10;2.75;;;;;;;10.81;57.07;99952.50;4862396;29;20042;-93
2021/11/26 01:49:59;;;;;;;9.38;2.72;;;;;;;10.83;57.18;99940.09;4862640;29;20368;-93
2021/11/26 01:52:25;;;;;;;8.05;2.50;;;;;;;10.73;57.71;99934.69;4861784;29;20476;-93
2021/11/26 01:54:50;;;;;;;8.70;2.35;;;;;;;10.86;56.83;99924.94;4861984;29;20068;-93
2021/11/26 01:57:17;;;;;;;8.57;2.75;;;;;;;10.77;56.99;99930.88;4862021;29;20026;-92
2021/11/26 01:59:43;;;;;;;8.52;2.40;;;;;;;10.23;58.61;99921.78;4862212;29;20133;-92
2021/11/26 02:02:09;;;;;;;10.40;2.63;;;;;;;10.38;57.71;99908.47;4860880;29;20030;-93
2021/11/26 02:04:35;;;;;;;11.60;2.72;;;;;;;10.44;58.46;99893.09;4861884;29;20116;-93
2021/11/26 02:07:00;;;;;;;18.63;2.72;;;;;;;10.36;58.26;99895.47;4861679;29;20104;-93
2021/11/26 02:09:25;;;;;;;10.05;2.88;;;;;;;10.37;58.40;99883.19;4861788;29;20026;-93
2021/11/26 02:11:51;;;;;;;11.90;2.72;;;;;;;10.62;57.41;99869.03;4861888;29;20133;-93
2021/11/26 02:14:16;;;;;;;7.32;2.10;;;;;;;10.55;57.80;99866.06;4861694;29;20026;-93
2021/11/26 02:16:44;;;;;;;13.30;2.55;;;;;;;10.73;57.45;99855.09;4861744;29;20064;-93
2021/11/26 02:19:10;;;;;;;15.60;2.55;;;;;;;10.38;58.39;99850.75;4861683;29;20094;-93
2021/11/26 02:21:35;;;;;;;13.27;2.83;;;;;;;10.82;57.46;99843.84;4861580;29;20033;-93
2021/11/26 02:24:01;;;;;;;10.65;2.50;;;;;;;9.98;59.62;99840.59;4860963;29;20026;-92
2021/11/26 02:26:26;;;;;;;17.83;2.70;;;;;;;10.67;57.94;99838.03;4861491;29;20021;-93
2021/11/26 02:28:51;;;;;;;10.98;2.10;;;;;;;10.73;57.73;99820.97;4875799;29;20037;-93
2021/11/26 02:31:17;;;;;;;15.60;2.40;;;;;;;10.87;57.08;99812.84;4861724;29;20078;-92
2021/11/26 02:33:42;;;;;;;10.15;2.90;;;;;;;10.83;57.05;99793.84;4861498;29;20029;-93
2021/11/26 02:36:08;;;;;;;11.80;2.00;;;;;;;10.60;57.29;99789.56;4860168;29;20165;-93
2021/11/26 02:38:33;;;;;;;6.80;1.45;;;;;;;10.96;56.62;99775.34;4861000;29;20489;-93
2021/11/26 02:40:58;;;;;;;14.05;2.00;;;;;;;10.82;56.90;99771.19;4860872;29;20041;-92
2021/11/26 02:43:24;;;;;;;9.25;1.50;;;;;;;10.93;56.28;99767.69;4860444;29;20033;-93
2021/11/26 02:45:51;;;;;;;11.55;1.58;;;;;;;11.03;56.00;99765.16;4860826;29;20041;-92
2021/11/26 02:48:16;;;;;;;5.45;1.20;;;;;;;10.96;56.58;99751.69;4861271;29;20056;-93
2021/11/26 02:50:45;;;;;;;6.78;1.27;;;;;;;11.03;56.67;99739.72;4861528;29;20477;-92
2021/11/26 02:53:10;;;;;;;10.80;1.65;;;;;;;11.16;55.99;99731.69;4861035;29;20025;-93
2021/11/26 02:55:37;;;;;;;13.23;1.73;;;;;;;11.34;55.73;99729.34;4861379;29;20033;-92
2021/11/26 02:58:03;;;;;;;7.63;1.85;;;;;;;11.39;55.38;99727.16;4860186;29;20032;-92
2021/11/26 03:00:30;;;;;;;3.45;0.90;;;;;;;11.31;55.65;99712.06;4861094;29;20109;-93
2021/11/26 03:02:57;;;;;;;13.70;1.40;;;;;;;11.14;56.35;99706.47;4861022;29;20017;-93
2021/11/26 03:05:23;;;;;;;6.70;1.60;;;;;;;11.45;55.34;99694.28;4860948;29;20033;-93
2021/11/26 03:07:50;;;;;;;13.63;1.95;;;;;;;11.42;55.44;99690.13;4860951;29;20045;-93
2021/11/26 03:10:17;;;;;;;5.20;1.20;;;;;;;11.49;55.21;99688.69;4860854;29;20026;-93
2021/11/26 03:12:52;;;;;;;9.25;1.83;;;;;;;11.29;55.97;99685.06;4860553;29;20094;-92
2021/11/26 03:15:19;;;;;;;12.52;2.00;;;;;;;11.52;55.50;99664.75;4860483;29;20029;-93
2021/11/26 03:17:44;;;;;;;13.57;3.20;;;;;;;11.47;55.67;99659.06;4860710;29;20028;-93
2021/11/26 03:20:11;;;;;;;19.95;3.45;;;;;;;11.58;55.88;99652.88;4860802;29;20025;-93
2021/11/26 03:22:37;;;;;;;8.32;1.70;;;;;;;11.51;55.95;99633.31;4860748;29;20025;-93
2021/11/26 03:25:03;;;;;;;12.57;2.30;;;;;;;11.29;56.71;99622.00;4860553;29;20436;-93
2021/11/26 03:27:29;;;;;;;14.82;1.60;;;;;;;11.26;57.01;99603.03;4860569;29;20476;-93
2021/11/26 03:29:54;;;;;;;13.85;2.42;;;;;;;11.32;56.93;99594.63;4859521;29;20039;-92
2021/11/26 03:32:21;;;;;;;9.07;1.20;;;;;;;11.47;56.81;99593.34;4860206;29;20388;-92
2021/11/26 03:34:46;;;;;;;9.35;2.70;;;;;;;11.59;56.68;99580.94;4860163;29;20065;-92
2021/11/26 03:37:11;;;;;;;12.50;1.88;;;;;;;11.41;57.20;99578.06;4860526;29;20057;-93
2021/11/26 03:39:37;;;;;;;9.82;1.48;;;;;;;11.30;57.61;99565.00;4859898;29;20037;-92
2021/11/26 03:42:03;;;;;;;13.95;1.98;;;;;;;11.23;58.42;99558.59;4860414;29;20029;-93
2021/11/26 03:44:28;;;;;;;14.15;1.13;;;;;;;11.43;57.38;99544.63;4860117;29;20033;-94
2021/11/26 03:46:53;;;;;;;5.82;1.38;;;;;;;11.68;57.17;99537.25;4860286;29;20069;-94
2021/11/26 03:49:19;;;;;;;10.85;1.50;;;;;;;11.75;56.82;99537.53;4860022;29;20532;-93
2021/11/26 03:51:44;;;;;;;10.32;2.30;;;;;;;11.77;56.90;99523.31;4860143;29;20039;-94
2021/11/26 03:54:10;;;;;;;13.50;4.30;;;;;;;11.76;57.13;99518.16;4859713;29;20085;-93
2021/11/26 03:56:35;;;;;;;9.15;1.30;;;;;;;11.92;56.87;99501.91;4860041;29;20034;-93
2021/11/26 03:59:01;;;;;;;12.38;2.05;;;;;;;11.94;56.63;99486.81;4858454;29;20037;-93
2021/11/26 04:01:26;;;;;;;7.70;1.67;;;;;;;11.63;57.53;99474.53;4860040;29;20034;-93
2021/11/26 04:03:51;;;;;;;5.53;2.00;;;;;;;11.97;56.61;99457.63;4859838;29;20129;-93
2021/11/26 04:06:17;;;;;;;20.67;2.35;;;;;;;12.10;56.03;99463.44;4859726;29;20061;-93
2021/11/26 04:08:42;;;;;;;19.25;3.83;;;;;;;11.97;56.38;99460.25;4859506;29;20049;-93
2021/11/26 04:11:07;;;;;;;11.10;1.98;;;;;;;12.02;56.51;99445.69;4873916;29;20417;-93
2021/11/26 04:13:33;;;;;;;16.98;3.40;;;;;;;11.76;56.96;99436.63;4859758;29;20025;-94
2021/11/26 04:16:04;;;;;;;17.95;4.38;;;;;;;11.73;56.97;99421.97;4859783;29;20489;-93
2021/11/26 04:18:33;;;;;;;12.75;1.83;;;;;;;11.79;57.04;99420.56;4859343;29;20029;-93
2021/11/26 04:20:58;;;;;;;15.32;2.33;;;;;;;11.58;57.76;99410.19;4859730;29;20030;-93
2021/11/26 04:23:24;;;;;;;14.43;3.42;;;;;;;11.84;57.12;99405.22;4859617;29;20053;-95
2021/11/26 04:25:49;;;;;;;23.48;6.20;;;;;;;11.82;56.88;99394.84;4857033;29;20037;-93
2021/11/26 04:28:15;;;;;;;12.93;3.47;;;;;;;11.83;56.98;99380.72;4859383;29;20021;-93
2021/11/26 04:30:40;;;;;;;16.73;2.58;;;;;;;11.72;57.29;99367.72;4859497;29;20029;-93
2021/11/26 04:33:06;;;;;;;8.43;1.70;;;;;;;11.88;57.29;99354.81;4857346;29;20453;-93
2021/11/26 04:35:31;;;;;;;11.52;1.90;;;;;;;11.79;57.34;99350.41;4859423;29;20029;-93
2021/11/26 04:37:57;;;;;;;14.02;2.35;;;;;;;11.79;57.92;99331.16;4873727;29;20444;-93
2021/11/26 04:40:22;;;;;;;10.48;1.77;;;;;;;10.90;60.53;99316.22;4859558;29;20452;-93
2021/11/26 04:42:48;;;;;;;10.35;2.17;;;;;;;11.61;59.08;99315.25;4859281;29;20034;-93
2021/11/26 04:45:15;;;;;;;11.20;1.70;;;;;;;11.82;58.81;99307.22;4859698;29;20037;-93
2021/11/26 04:47:40;;;;;;;8.23;1.50;;;;;;;11.52;59.72;99301.94;4859167;29;20492;-93
2021/11/26 04:50:07;;;;;;;9.15;1.65;;;;;;;11.73;59.42;99293.13;4859420;29;20040;-93
2021/11/26 04:52:33;;;;;;;5.55;1.90;;;;;;;11.90;58.99;99283.72;4859653;29;20041;-94
2021/11/26 04:54:58;;;;;;;8.38;1.75;;;;;;;11.61;60.06;99262.66;4858087;29;20033;-93
2021/11/26 04:57:24;;;;;;;9.77;1.85;;;;;;;11.56;60.21;99259.63;4859287;29;20472;-92
2021/11/26 04:59:49;;;;;;;5.32;1.58;;;;;;;11.77;59.50;99257.69;4859417;29;20520;-93
2021/11/26 05:02:14;;;;;;;11.18;2.67;;;;;;;11.70;59.57;99252.13;4857386;29;20034;-93
2021/11/26 05:04:40;;;;;;;9.90;1.38;;;;;;;11.61;59.67;99242.47;4859237;29;20365;-93
2021/11/26 05:07:06;;;;;;;8.30;1.60;;;;;;;11.56;60.06;99238.59;4859185;29;20182;-93
2021/11/26 05:09:31;;;;;;;9.45;1.83;;;;;;;11.81;59.34;99227.50;4859649;29;20101;-93
2021/11/26 05:11:57;;;;;;;8.90;1.35;;;;;;;11.77;59.60;99218.25;4858837;29;20040;-93
2021/11/26 05:14:24;;;;;;;7.78;1.42;;;;;;;11.71;59.89;99213.53;4859046;29;20472;-94
2021/11/26 05:16:50;;;;;;;6.32;1.83;;;;;;;11.86;59.66;99225.25;4859016;29;20161;-93
2021/11/26 05:19:16;;;;;;;11.63;2.10;;;;;;;11.37;61.14;99213.13;4859113;29;20469;-93
2021/11/26 05:21:41;;;;;;;11.07;1.80;;;;;;;11.54;60.39;99204.56;4873470;29;20034;-93
2021/11/26 05:24:07;;;;;;;8.50;1.83;;;;;;;11.57;60.87;99203.44;4873281;29;20025;-93
2021/11/26 05:26:32;;;;;;;11.13;1.60;;;;;;;11.45;61.52;99186.97;4858923;29;20033;-94
2021/11/26 05:28:58;;;;;;;7.15;1.60;;;;;;;11.79;60.40;99184.75;4859007;29;20025;-93
2021/11/26 05:31:23;;;;;;;6.78;1.30;;;;;;;11.62;61.22;99180.19;4858954;29;20026;-93
2021/11/26 05:33:49;;;;;;;6.18;1.25;;;;;;;11.56;61.34;99186.03;4859372;29;20025;-94
2021/11/26 05:36:16;;;;;;;4.75;1.25;;;;;;;11.31;62.27;99180.34;4858577;29;20417;-94
2021/11/26 05:38:41;;;;;;;12.32;1.45;;;;;;;11.24;63.00;99168.75;4861244;29;20064;-94
2021/11/26 05:41:07;;;;;;;5.07;1.30;;;;;;;11.48;62.45;99158.63;4861998;29;20068;-94
2021/11/26 05:43:33;;;;;;;4.97;1.10;;;;;;;11.61;61.78;99155.72;4862163;29;20457;-93
2021/11/26 05:45:58;;;;;;;7.75;1.27;;;;;;;11.78;61.18;99141.00;4862294;29;20026;-93
2021/11/26 05:48:23;;;;;;;10.10;1.75;;;;;;;11.63;61.67;99142.41;4861957;29;20025;-94
2021/11/26 05:50:49;;;;;;;7.93;1.38;;;;;;;11.63;61.87;99129.25;4862029;29;20399;-94
2021/11/26 05:53:15;;;;;;;5.88;1.23;;;;;;;11.77;61.35;99120.94;4861821;29;20077;-94
2021/11/26 05:55:40;;;;;;;5.65;1.70;;;;;;;11.86;60.47;99106.91;4862138;29;20026;-93
2021/11/26 05:58:06;;;;;;;11.27;1.40;;;;;;;11.79;60.92;99107.63;4862094;29;20489;-94
2021/11/26 06:00:33;;;;;;;11.90;3.83;;;;;;;11.98;60.10;99099.69;4861974;29;20028;-93
2021/11/26 06:02:59;;;;;;;23.90;8.43;;;;;;;11.50;61.11;99069.94;4861967;29;20033;-95
2021/11/26 06:05:25;;;;;;;37.20;15.73;;;;;;;11.54;61.07;99059.97;4861637;29;20503;-94
2021/11/26 06:07:51;;;;;;;10.27;2.45;;;;;;;11.51;60.99;99050.59;4862232;29;20037;-94
2021/11/26 06:10:17;;;;;;;6.93;1.45;;;;;;;11.80;60.32;99036.47;4862125;29;20067;-94
2021/11/26 06:12:45;;;;;;;15.32;5.45;;;;;;;11.70;60.86;99038.34;4862527;29;20206;-94
2021/11/26 06:15:13;;;;;;;22.67;5.60;;;;;;;11.87;60.17;99048.09;4861762;29;20032;-93
2021/11/26 06:17:39;;;;;;;21.45;6.28;;;;;;;11.96;60.25;99041.13;4861780;29;20089;-94
2021/11/26 06:20:06;;;;;;;8.65;3.72;;;;;;;12.12;59.62;99034.41;4861088;29;20044;-95
2021/11/26 06:22:31;;;;;;;18.65;5.00;;;;;;;12.16;59.45;99031.34;4861659;29;20481;-93
2021/11/26 06:24:57;;;;;;;21.90;4.88;;;;;;;12.13;59.65;99025.56;4861952;29;20044;-94
2021/11/26 06:27:22;;;;;;;10.45;2.25;;;;;;;12.01;60.43;99014.41;4861628;29;20061;-93
2021/11/26 06:29:48;;;;;;;7.07;1.55;;;;;;;12.00;61.43;99008.31;4861315;29;20033;-94
2021/11/26 06:32:13;;;;;;;10.27;1.30;;;;;;;12.15;61.13;99006.00;4861629;29;20594;-94
2021/11/26 06:34:39;;;;;;;6.65;1.65;;;;;;;12.09;61.96;98989.00;4861192;29;20500;-94
2021/11/26 06:37:04;;;;;;;12.00;1.48;;;;;;;12.11;62.14;98986.25;4861635;29;20030;-94
2021/11/26 06:39:30;;;;;;;9.25;1.30;;;;;;;12.11;62.47;98980.97;4861178;29;20493;-95
2021/11/26 06:41:55;;;;;;;11.20;1.70;;;;;;;11.91;62.86;98964.50;4861595;29;20025;-94
2021/11/26 06:44:20;;;;;;;15.40;2.08;;;;;;;12.31;62.21;98947.44;4861220;29;20024;-94
2021/11/26 06:46:46;;;;;;;7.72;1.60;;;;;;;12.42;61.65;98946.38;4861457;29;20040;-93
2021/11/26 06:49:11;;;;;;;12.68;1.75;;;;;;;12.53;61.25;98935.63;4860502;29;20477;-94
2021/11/26 06:51:37;;;;;;;5.93;1.30;;;;;;;12.44;61.67;98937.38;4861431;29;20357;-94
2021/11/26 06:54:02;;;;;;;18.45;1.95;;;;;;;12.58;61.48;98941.25;4861377;29;20108;-94
2021/11/26 06:56:28;;;;;;;10.13;1.65;;;;;;;12.50;62.05;98931.50;4861258;29;20029;-94
2021/11/26 06:58:57;;;;;;;10.07;1.45;;;;;;;12.57;61.66;98922.97;4860941;29;20034;-93
2021/11/26 07:01:22;;;;;;;7.30;2.03;;;;;;;12.65;61.27;98917.75;4861272;29;20029;-94
2021/11/26 07:03:47;;;;;;;15.10;2.35;;;;;;;12.40;62.46;98911.47;4860585;29;20029;-95
2021/11/26 07:06:13;;;;;;;13.82;2.13;;;;;;;12.41;61.94;98898.16;4860765;29;20093;-94
2021/11/26 07:08:38;;;;;;;10.15;2.65;;;;;;;12.57;61.35;98884.28;4861040;29;20031;-94
2021/11/26 07:11:04;;;;;;;11.38;2.75;;;;;;;12.35;62.40;98884.81;4860987;29;20029;-94
2021/11/26 07:13:29;;;;;;;10.38;1.63;;;;;;;12.38;62.21;98884.47;4860847;29;20061;-94
2021/11/26 07:15:54;;;;;;;10.93;1.50;;;;;;;12.67;61.52;98869.22;4861218;29;20052;-93
2021/11/26 07:18:20;;;;;;;9.05;1.58;;;;;;;12.87;60.56;98880.38;4860677;29;20530;-94
2021/11/26 07:20:45;;;;;;;8.95;1.75;;;;;;;12.86;60.90;98876.09;4860777;29;20061;-93
2021/11/26 07:23:11;;;;;;;10.80;2.10;;;;;;;12.75;61.14;98867.63;4861014;29;20033;-94
2021/11/26 07:25:36;;;;;;;12.88;2.10;;;;;;;12.56;61.52;98858.13;4862060;29;20034;-92
2021/11/26 07:28:02;;;;;;;12.55;2.67;;;;;;;12.41;61.98;98865.75;4859514;29;20397;-94
2021/11/26 07:30:27;;;;;;;7.15;1.30;;;;;;;12.82;60.63;98858.13;4860546;29;20057;-93
2021/11/26 07:32:52;;;;;;;12.93;1.67;;;;;;;12.84;60.83;98851.72;4860588;29;20500;-93
2021/11/26 07:35:18;;;;;;;8.07;1.83;;;;;;;12.72;61.45;98849.50;4860656;29;20109;-94
2021/11/26 07:37:44;;;;;;;12.80;1.55;;;;;;;12.72;61.25;98846.84;4860632;29;20072;-93
2021/11/26 07:40:15;;;;;;;10.77;2.28;;;;;;;12.48;62.23;98849.22;4860647;29;20033;-93
2021/11/26 07:42:41;;;;;;;12.23;1.75;;;;;;;12.47;62.21;98844.91;4860222;29;20059;-94
2021/11/26 07:45:11;;;;;;;8.55;1.75;;;;;;;12.74;62.22;98837.00;4860558;29;20044;-93
2021/11/26 07:47:38;;;;;;;6.78;1.40;;;;;;;12.47;62.88;98818.59;4860303;29;20041;-94
2021/11/26 07:50:05;;;;;;;6.80;1.27;;;;;;;12.55;62.71;98820.44;4859762;29;20112;-94
2021/11/26 07:52:31;;;;;;;10.43;1.52;;;;;;;12.86;61.98;98812.06;4869388;29;20610;-93
2021/11/26 07:54:57;;;;;;;12.02;1.58;;;;;;;12.65;62.36;98809.81;4878830;29;20061;-93
2021/11/26 07:57:22;;;;;;;8.60;1.65;;;;;;;12.83;61.87;98804.44;4860925;29;20093;-94
2021/11/26 07:59:48;;;;;;;9.75;2.30;;;;;;;12.92;61.51;98806.16;4873726;29;20117;-93
2021/11/26 08:02:13;;;;;;;13.70;1.83;;;;;;;12.89;61.96;98790.66;4858699;29;20065;-93
2021/11/26 08:04:38;;;;;;;8.65;1.92;;;;;;;12.86;62.17;98780.44;4859801;29;20477;-93
2021/11/26 08:07:04;;;;;;;15.48;2.17;;;;;;;12.34;63.95;98801.56;4860028;29;20025;-94
2021/11/26 08:09:30;;;;;;;13.90;2.00;;;;;;;12.66;63.45;98785.94;4862196;29;20113;-95
2021/11/26 08:11:56;;;;;;;15.38;2.15;;;;;;;13.01;62.15;98781.50;4859578;29;20029;-96
2021/11/26 08:14:21;;;;;;;10.00;3.15;;;;;;;12.78;62.28;98769.88;4862917;29;20460;-95
2021/11/26 08:16:50;;;;;;;8.80;2.15;;;;;;;12.94;62.58;98756.75;4862044;29;20381;-96
2021/11/26 08:19:16;;;;;;;12.20;2.00;;;;;;;12.99;61.93;98754.44;4863232;29;20041;-96
2021/11/26 08:21:42;;;;;;;13.93;3.42;;;;;;;12.93;62.18;98757.72;4864264;29;20064;-96
2021/11/26 08:24:08;;;;;;;16.35;2.38;;;;;;;12.82;63.03;98742.25;4864184;29;20026;-94
2021/11/26 08:26:34;;;;;;;20.85;2.88;;;;;;;12.91;62.79;98746.53;4869603;29;20029;-96
2021/11/26 08:29:02;;;;;;;10.25;2.28;;;;;;;13.09;61.93;98734.09;4863522;29;20044;-96
2021/11/26 08:31:27;;;;;;;9.45;2.10;;;;;;;13.05;62.29;98727.50;4858983;29;20029;-95
2021/11/26 08:33:53;;;;;;;15.30;3.08;;;;;;;12.82;62.96;98715.91;4863201;29;20056;-96
2021/11/26 08:36:18;;;;;;;8.15;2.00;;;;;;;13.34;61.84;98715.69;4865588;29;20113;-95
2021/11/26 08:38:43;;;;;;;16.85;3.40;;;;;;;13.49;61.05;98705.34;4862084;29;20116;-94
2021/11/26 08:41:09;;;;;;;8.60;1.92;;;;;;;12.97;62.77;98702.91;4865657;29;20384;-96
2021/11/26 08:43:34;;;;;;;7.65;1.55;;;;;;;13.03;62.62;98705.75;4866652;29;20068;-96
2021/11/26 08:46:00;;;;;;;11.15;2.05;;;;;;;13.32;61.61;98704.50;4861853;29;20041;-94
2021/11/26 08:48:26;;;;;;;14.07;2.50;;;;;;;13.37;61.39;98704.84;4860584;29;20511;-95
2021/11/26 08:50:51;;;;;;;14.18;2.03;;;;;;;12.96;62.80;98691.56;4860760;29;20029;-95
2021/11/26 08:53:19;;;;;;;7.82;2.08;;;;;;;13.35;61.61;98691.00;4864797;29;20045;-94
2021/11/26 08:55:52;;;;;;;13.00;2.03;;;;;;;13.40;61.11;98693.94;4860249;29;20034;-95
2021/11/26 08:58:18;;;;;;;16.48;1.85;;;;;;;12.87;62.54;98692.53;4857912;29;20026;-96
2021/11/26 09:00:44;;;;;;;12.48;1.75;;;;;;;13.27;61.79;98699.69;4860313;29;20041;-95
2021/11/26 09:03:10;;;;;;;7.28;1.55;;;;;;;13.22;62.35;98698.53;4861381;29;20036;-94
2021/11/26 09:05:36;;;;;;;9.05;1.60;;;;;;;13.54;60.90;98689.81;4860388;29;20061;-95
2021/11/26 09:08:03;;;;;;;6.95;1.30;;;;;;;13.58;60.54;98685.06;4859933;29;20064;-94
2021/11/26 09:10:35;;;;;;;8.15;1.33;;;;;;;13.28;61.30;98695.22;4860493;29;20065;-95
2021/11/26 09:13:01;;;;;;;9.43;1.48;;;;;;;13.36;61.61;98682.09;4862842;29;20024;-95
2021/11/26 09:15:27;;;;;;;9.02;1.30;;;;;;;13.54;61.12;98678.47;4863671;29;20136;-95
2021/11/26 09:17:53;;;;;;;7.88;1.27;;;;;;;13.55;60.93;98673.03;4867572;29;20433;-95
2021/11/26 09:20:19;;;;;;;5.50;1.40;;;;;;;14.02;60.35;98655.63;4863661;29;20120;-95
2021/11/26 09:22:47;;;;;;;8.65;1.38;;;;;;;14.42;59.39;98662.59;4865375;29;20108;-94
2021/11/26 09:25:13;;;;;;;13.10;1.25;;;;;;;14.80;58.05;98665.41;4847065;29;20029;-95
2021/11/26 09:27:39;;;;;;;7.85;1.45;;;;;;;14.53;58.71;98661.38;4863482;29;20033;-96
2021/11/26 09:30:06;;;;;;;7.85;1.00;;;;;;;14.25;60.13;98650.44;4863782;29;20034;-94
2021/11/26 09:32:32;;;;;;;6.45;0.95;;;;;;;14.54;59.16;98644.56;4862080;29;20034;-96
2021/11/26 09:34:57;;;;;;;8.60;1.55;;;;;;;14.67;58.81;98647.50;4877418;29;20116;-95
2021/11/26 09:37:23;;;;;;;6.97;1.42;;;;;;;14.24;59.51;98654.09;4861959;29;20049;-95
2021/11/26 09:39:48;;;;;;;8.80;1.25;;;;;;;14.63;58.99;98654.13;4862004;29;20057;-96
2021/11/26 09:42:14;;;;;;;5.78;1.00;;;;;;;14.36;60.56;98659.81;4862202;29;20033;-94
2021/11/26 09:44:42;;;;;;;7.78;1.23;;;;;;;13.42;64.26;98686.69;4866804;29;20032;-96
2021/11/26 09:47:07;;;;;;;8.43;1.42;;;;;;;13.69;62.05;98682.09;4873335;29;20388;-93
2021/11/26 09:49:33;;;;;;;6.85;0.98;;;;;;;13.58;63.38;98685.06;4863208;29;20041;-95
2021/11/26 09:51:59;;;;;;;7.72;1.42;;;;;;;13.42;63.61;98680.59;4866896;29;21281;-95
2021/11/26 09:54:25;;;;;;;1.90;0.50;;;;;;;12.84;63.31;98671.78;4866590;29;20030;-95
2021/11/26 09:56:51;;;;;;;1.65;0.30;;;;;;;13.16;62.64;98641.22;4879422;29;20040;-96
2021/11/26 09:59:17;;;;;;;2.47;0.20;;;;;;;13.25;62.34;98627.03;4874584;29;20033;-96
2021/11/26 10:01:43;;;;;;;3.10;0.60;;;;;;;13.09;61.44;98633.97;4862769;29;20535;-94
2021/11/26 10:04:17;;;;;;;1.55;0.40;;;;;;;12.77;62.00;98626.00;4867840;29;20160;-96
2021/11/26 10:06:44;;;;;;;2.20;0.20;;;;;;;12.96;61.48;98633.59;4865794;29;20029;-96
2021/11/26 10:09:22;;;;;;;3.97;0.47;;;;;;;13.18;61.07;98637.41;4852780;29;20057;-96
2021/11/26 10:11:50;;;;;;;1.20;0.30;;;;;;;13.24;60.79;98630.66;4848349;29;20034;-95
2021/11/26 10:14:33;;;;;;;1.30;0.40;;;;;;;13.91;60.67;98634.91;4848153;29;20504;-96
2021/11/26 10:17:15;;;;;;;1.85;0.30;;;;;;;15.27;58.98;98634.53;4855337;29;20156;-96
2021/11/26 10:19:50;;;;;;;3.08;0.50;;;;;;;16.47;56.33;98623.03;4870306;29;20033;-96
2021/11/26 10:22:22;;;;;;;2.47;0.30;;;;;;;17.11;53.83;98608.22;4866991;29;20141;-96
2021/11/26 10:25:16;;;;;;;3.55;0.75;;;;;;;18.00;53.39;98605.81;4883110;29;20093;-95
2021/11/26 10:27:55;;;;;;;1.75;0.30;;;;;;;18.37;50.39;98610.91;4877283;29;20036;-96
2021/11/26 10:30:42;;;;;;;4.47;0.50;;;;;;;18.47;48.73;98600.72;4876915;29;20037;-96
2021/11/26 10:33:33;;;;;;;3.80;0.73;;;;;;;18.63;49.80;98584.41;4869682;29;20026;-96
2021/11/26 10:36:02;;;;;;;2.05;0.40;;;;;;;18.98;49.71;98578.97;4875063;29;20042;-96
2021/11/26 10:38:31;;;;;;;2.35;0.32;;;;;;;18.91;48.96;98580.00;4881135;29;20037;-96
2021/11/26 10:41:03;;;;;;;1.30;0.43;;;;;;;17.55;51.70;98572.66;4878708;29;20045;-96
2021/11/26 10:43:51;;;;;;;2.78;0.85;;;;;;;17.77;51.63;98568.09;4882064;29;20014;-96
2021/11/26 10:52:15;;;;;;;4.55;0.80;;;;;;;16.90;53.21;98542.78;4881319;29;20021;-96
2021/11/26 10:59:52;;;;;;;1.98;0.40;;;;;;;17.87;52.39;98526.13;4884730;29;20552;-96
2021/11/26 11:02:36;;;;;;;5.55;0.90;;;;;;;17.63;52.64;98504.34;4883924;29;20025;-95
2021/11/26 11:05:04;;;;;;;3.60;0.77;;;;;;;18.18;51.53;98509.69;4882566;29;20033;-96
2021/11/26 11:07:59;;;;;;;5.63;0.60;;;;;;;17.86;51.47;98502.44;4883135;29;20045;-96
2021/11/26 11:10:27;;;;;;;8.20;2.45;;;;;;;17.30;52.20;98495.34;4883290;29;20101;-96
2021/11/26 11:12:53;;;;;;;2.67;0.82;;;;;;;17.93;51.96;98485.50;4881924;29;20028;-96
2021/11/26 11:15:20;;;;;;;4.03;0.80;;;;;;;18.45;50.59;98482.38;4881253;29;20484;-96
2021/11/26 11:17:47;;;;;;;6.32;1.00;;;;;;;18.58;49.31;98477.91;4879270;29;20033;-96
2021/11/26 11:20:17;;;;;;;6.45;1.25;;;;;;;18.08;49.56;98473.91;4881850;29;20030;-96
2021/11/26 11:22:44;;;;;;;4.72;1.05;;;;;;;18.98;49.42;98477.13;4873202;29;20069;-96
2021/11/26 11:25:12;;;;;;;4.90;0.70;;;;;;;18.96;48.02;98472.00;4873401;29;20033;-95
2021/11/26 11:27:38;;;;;;;5.38;0.77;;;;;;;18.52;48.01;98451.28;4874283;29;20060;-96
2021/11/26 11:30:06;;;;;;;8.70;1.10;;;;;;;18.82;46.91;98462.41;4878702;29;20037;-95
2021/11/26 11:32:31;;;;;;;5.70;1.00;;;;;;;18.43;46.96;98443.53;4876598;29;20034;-96
2021/11/26 11:34:58;;;;;;;7.80;1.17;;;;;;;18.35;45.60;98438.41;4870698;29;20037;-94
2021/11/26 11:37:28;;;;;;;4.53;1.00;;;;;;;18.14;47.11;98441.22;4877269;29;20041;-96
2021/11/26 11:39:56;;;;;;;6.88;1.15;;;;;;;18.86;45.99;98438.84;4871194;29;20033;-95